Terminal Aerodrome Forecast
Issued by NWS Mt. Holly, NJ

Home | Current Version | Previous Version | Text Only | Print | Product List | Glossary On
Versions: 1 2 3 4 5 6 7 8 9 10 11 12 13 14 15 16 17 18 19 20 21 22
000
FTUS41 KPHI 231135
TAFACY
TAF
KACY 231135Z 2312/2412 13005KT P6SM SCT020 BKN060
     FM231400 14005KT P6SM BKN060
     FM231600 14009KT P6SM BKN050
     FM240600 16012KT P6SM OVC080 WS020/18040KT
     FM240800 16012KT P6SM VCSH OVC060 WS020/18040KT
     FM241000 16015KT 6SM -SHRA OVC040 WS020/18045KT=

USA.gov is the U.S. government's official web portal to all federal, state and local government web resources and services.